Time;durP1;ratioP1;P1;durP2;ratioP2;P2;SDS_P1;SDS_P2;PMS_P1;PMS_P2;Temp;Humidity;BMP_temperature;BMP_pressure;BME280_temperature;BME280_humidity;BME280_pressure;Samples;Min_cycle;Max_cycle;Signal;HPM_P1;HPM_P2
2023/02/09 00:02:08;;;;;;;;;;;;;;;;;;5038742;28;19909;-81
2023/02/09 00:04:34;;;;;;;;;;;;;;;;;;5055871;28;19944;-81
2023/02/09 00:07:00;;;;;;;;;;;;;;;;;;5033592;28;19923;-82
2023/02/09 00:09:26;;;;;;;;;;;;;;;;;;5051589;28;19919;-82
2023/02/09 00:14:36;;;;;;;;;;;;;;;;;;5054907;28;19963;-82
2023/02/09 00:17:02;;;;;;;;;;;;;;;;;;5055412;28;19909;-82
2023/02/09 00:19:28;;;;;;;;;;;;;;;;;;5033716;28;19913;-82
2023/02/09 00:21:54;;;;;;;;;;;;;;;;;;5035438;28;20339;-82
2023/02/09 00:27:05;;;;;;;;;;;;;;;;;;5035644;28;20004;-82
2023/02/09 00:29:30;;;;;;;;;;;;;;;;;;5035302;28;19956;-82
2023/02/09 00:31:56;;;;;;;;;;;;;;;;;;5036117;28;19909;-82
2023/02/09 00:34:22;;;;;;;;;;;;;;;;;;5040720;28;19970;-82
2023/02/09 00:36:48;;;;;;;;;;;;;;;;;;5035025;28;19909;-82
2023/02/09 00:39:14;;;;;;;;;;;;;;;;;;5016836;28;19917;-81
2023/02/09 00:44:24;;;;;;;;;;;;;;;;;;5040161;28;19920;-82
2023/02/09 00:46:51;;;;;;;;;;;;;;;;;;5036793;28;19913;-81
2023/02/09 00:49:17;;;;;;;;;;;;;;;;;;5042701;28;19913;-81
2023/02/09 00:51:42;;;;;;;;;;;;;;;;;;5034466;28;19932;-81
2023/02/09 00:54:08;;;;;;;;;;;;;;;;;;5021706;28;19924;-81
2023/02/09 00:56:34;;;;;;;;;;;;;;;;;;5054699;28;19974;-81
2023/02/09 00:59:00;;;;;;;;;;;;;;;;;;5036891;28;20353;-81
2023/02/09 01:01:26;;;;;;;;;;;;;;;;;;5051489;28;19948;-81
2023/02/09 01:03:52;;;;;;;;;;;;;;;;;;5053850;28;20011;-80
2023/02/09 01:06:18;;;;;;;;;;;;;;;;;;5054337;28;20219;-80
2023/02/09 01:08:44;;;;;;;;;;;;;;;;;;5053790;28;19909;-80
2023/02/09 01:11:09;;;;;;;;;;;;;;;;;;5034070;28;19912;-80
2023/02/09 01:13:35;;;;;;;;;;;;;;;;;;5053767;28;19948;-80
2023/02/09 01:16:01;;;;;;;;;;;;;;;;;;5054340;28;20136;-80
2023/02/09 01:18:27;;;;;;;;;;;;;;;;;;5035482;28;20347;-80
2023/02/09 01:20:53;;;;;;;;;;;;;;;;;;5051158;28;19913;-80
2023/02/09 01:23:19;;;;;;;;;;;;;;;;;;5053602;28;20493;-80
2023/02/09 01:25:45;;;;;;;;;;;;;;;;;;5053399;28;19909;-80
2023/02/09 01:28:11;;;;;;;;;;;;;;;;;;5035429;28;19913;-79
2023/02/09 01:30:37;;;;;;;;;;;;;;;;;;5033994;28;19909;-80
2023/02/09 01:33:02;;;;;;;;;;;;;;;;;;5055616;28;19919;-80
2023/02/09 01:35:28;;;;;;;;;;;;;;;;;;5037230;28;19917;-80
2023/02/09 01:37:54;;;;;;;;;;;;;;;;;;5058142;28;20363;-81
2023/02/09 01:40:20;;;;;;;;;;;;;;;;;;5056212;28;19913;-80
2023/02/09 01:42:46;;;;;;;;;;;;;;;;;;5031072;28;19913;-81
2023/02/09 01:45:12;;;;;;;;;;;;;;;;;;5054752;28;19909;-81
2023/02/09 01:47:38;;;;;;;;;;;;;;;;;;5036761;28;19909;-81
2023/02/09 01:50:04;;;;;;;;;;;;;;;;;;5054433;28;20088;-81
2023/02/09 01:52:30;;;;;;;;;;;;;;;;;;5034740;28;19913;-81
2023/02/09 01:54:56;;;;;;;;;;;;;;;;;;5056772;28;20010;-81
2023/02/09 01:57:21;;;;;;;;;;;;;;;;;;5056969;28;19913;-81
2023/02/09 01:59:47;;;;;;;;;;;;;;;;;;5060397;28;19909;-81
2023/02/09 02:02:13;;;;;;;;;;;;;;;;;;5060038;28;19943;-81
2023/02/09 02:04:39;;;;;;;;;;;;;;;;;;5058682;28;19915;-81
2023/02/09 02:07:05;;;;;;;;;;;;;;;;;;5039402;28;19913;-81
2023/02/09 02:09:31;;;;;;;;;;;;;;;;;;5040059;28;20008;-81
2023/02/09 02:11:57;;;;;;;;;;;;;;;;;;5056174;28;19958;-80
2023/02/09 02:14:23;;;;;;;;;;;;;;;;;;5040263;28;19920;-80
2023/02/09 02:16:48;;;;;;;;;;;;;;;;;;5058302;28;19916;-80
2023/02/09 02:19:14;;;;;;;;;;;;;;;;;;5048249;28;19966;-81
2023/02/09 02:21:40;;;;;;;;;;;;;;;;;;5039932;28;19913;-80
2023/02/09 02:24:06;;;;;;;;;;;;;;;;;;5038218;28;20264;-80
2023/02/09 02:26:32;;;;;;;;;;;;;;;;;;5039359;28;19909;-80
2023/02/09 02:28:58;;;;;;;;;;;;;;;;;;5038824;28;20283;-81
2023/02/09 02:31:24;;;;;;;;;;;;;;;;;;5059122;28;19909;-81
2023/02/09 02:33:51;;;;;;;;;;;;;;;;;;5058317;28;19905;-81
2023/02/09 02:36:17;;;;;;;;;;;;;;;;;;5040575;28;20367;-81
2023/02/09 02:38:42;;;;;;;;;;;;;;;;;;5038576;28;19923;-81
2023/02/09 02:41:08;;;;;;;;;;;;;;;;;;5058099;28;19983;-81
2023/02/09 02:43:34;;;;;;;;;;;;;;;;;;5058000;28;19996;-81
2023/02/09 02:46:00;;;;;;;;;;;;;;;;;;5058162;28;20290;-81
2023/02/09 02:48:26;;;;;;;;;;;;;;;;;;5040753;28;19916;-81
2023/02/09 02:50:52;;;;;;;;;;;;;;;;;;5056076;28;19913;-81
2023/02/09 02:53:18;;;;;;;;;;;;;;;;;;5039860;28;19909;-81
2023/02/09 02:55:44;;;;;;;;;;;;;;;;;;5040327;28;20015;-81
2023/02/09 02:58:10;;;;;;;;;;;;;;;;;;5037777;28;19909;-81
2023/02/09 03:00:36;;;;;;;;;;;;;;;;;;5028796;28;19913;-81
2023/02/09 03:03:02;;;;;;;;;;;;;;;;;;5039950;28;19909;-81
2023/02/09 03:05:28;;;;;;;;;;;;;;;;;;5057997;28;20422;-80
2023/02/09 03:07:54;;;;;;;;;;;;;;;;;;5057396;28;19956;-81
2023/02/09 03:10:20;;;;;;;;;;;;;;;;;;5055309;28;19975;-81
2023/02/09 03:12:46;;;;;;;;;;;;;;;;;;5038966;28;19909;-82
2023/02/09 03:15:12;;;;;;;;;;;;;;;;;;5039968;28;19919;-83
2023/02/09 03:17:38;;;;;;;;;;;;;;;;;;5057197;28;20298;-83
2023/02/09 03:20:03;;;;;;;;;;;;;;;;;;5054217;28;19914;-80
2023/02/09 03:22:29;;;;;;;;;;;;;;;;;;5037583;28;19936;-80
2023/02/09 03:24:55;;;;;;;;;;;;;;;;;;5056839;28;20363;-83
2023/02/09 03:27:21;;;;;;;;;;;;;;;;;;5038613;28;19908;-83
2023/02/09 03:29:47;;;;;;;;;;;;;;;;;;5038337;28;19921;-82
2023/02/09 03:32:13;;;;;;;;;;;;;;;;;;5053777;28;20313;-81
2023/02/09 03:34:39;;;;;;;;;;;;;;;;;;5056788;28;19987;-81
2023/02/09 03:37:05;;;;;;;;;;;;;;;;;;5038366;28;19955;-82
2023/02/09 03:39:31;;;;;;;;;;;;;;;;;;5056252;28;20370;-83
2023/02/09 03:41:56;;;;;;;;;;;;;;;;;;5036056;28;19917;-83
2023/02/09 03:44:25;;;;;;;;;;;;;;;;;;5053479;28;20393;-83
2023/02/09 03:46:51;;;;;;;;;;;;;;;;;;5038469;28;19913;-83
2023/02/09 03:49:17;;;;;;;;;;;;;;;;;;5038829;28;19908;-82
2023/02/09 03:51:43;;;;;;;;;;;;;;;;;;5042629;28;19975;-83
2023/02/09 03:54:09;;;;;;;;;;;;;;;;;;5036104;28;19917;-83
2023/02/09 03:56:36;;;;;;;;;;;;;;;;;;5054390;28;19912;-83
2023/02/09 03:59:02;;;;;;;;;;;;;;;;;;5056934;28;19909;-83
2023/02/09 04:01:28;;;;;;;;;;;;;;;;;;5053817;28;19938;-83
2023/02/09 04:03:53;;;;;;;;;;;;;;;;;;5040779;28;19915;-82
2023/02/09 04:06:19;;;;;;;;;;;;;;;;;;5036519;28;19909;-82
2023/02/09 04:08:46;;;;;;;;;;;;;;;;;;5033736;28;20310;-82
2023/02/09 04:11:11;;;;;;;;;;;;;;;;;;5035950;28;20367;-83
2023/02/09 04:13:37;;;;;;;;;;;;;;;;;;5036308;28;19916;-82
2023/02/09 04:16:03;;;;;;;;;;;;;;;;;;5017534;28;19917;-82
2023/02/09 04:18:29;;;;;;;;;;;;;;;;;;5036984;28;20369;-83
2023/02/09 04:20:55;;;;;;;;;;;;;;;;;;5036849;28;19916;-83
2023/02/09 04:23:21;;;;;;;;;;;;;;;;;;5019843;28;19932;-83
2023/02/09 04:25:47;;;;;;;;;;;;;;;;;;5034910;28;20351;-83
2023/02/09 04:28:13;;;;;;;;;;;;;;;;;;5034262;28;19965;-83
2023/02/09 04:30:39;;;;;;;;;;;;;;;;;;5036741;28;20438;-83
2023/02/09 04:33:04;;;;;;;;;;;;;;;;;;5035832;28;19909;-83
2023/02/09 04:35:30;;;;;;;;;;;;;;;;;;5036462;28;19917;-83
2023/02/09 04:37:56;;;;;;;;;;;;;;;;;;5048373;28;20282;-83
2023/02/09 04:40:22;;;;;;;;;;;;;;;;;;5037342;28;19917;-82
2023/02/09 04:42:48;;;;;;;;;;;;;;;;;;5036981;28;19908;-82
2023/02/09 04:45:14;;;;;;;;;;;;;;;;;;5037155;28;19909;-82
2023/02/09 04:47:40;;;;;;;;;;;;;;;;;;5037027;28;19959;-83
2023/02/09 04:50:06;;;;;;;;;;;;;;;;;;5034707;28;19913;-82
2023/02/09 04:52:31;;;;;;;;;;;;;;;;;;5035079;28;19909;-82
2023/02/09 04:54:57;;;;;;;;;;;;;;;;;;5034500;28;20382;-82
2023/02/09 05:00:08;;;;;;;;;;;;;;;;;;5049629;28;19919;-81
2023/02/09 05:02:34;;;;;;;;;;;;;;;;;;5054723;28;20282;-82
2023/02/09 05:05:00;;;;;;;;;;;;;;;;;;5054780;28;19919;-82
2023/02/09 05:07:26;;;;;;;;;;;;;;;;;;5036820;28;19913;-83
2023/02/09 05:09:51;;;;;;;;;;;;;;;;;;5034423;28;19916;-82
2023/02/09 05:12:17;;;;;;;;;;;;;;;;;;5037635;28;20234;-82
2023/02/09 05:14:43;;;;;;;;;;;;;;;;;;5037133;28;19919;-82
2023/02/09 05:17:09;;;;;;;;;;;;;;;;;;5054532;28;19955;-82
2023/02/09 05:19:35;;;;;;;;;;;;;;;;;;5044588;28;19913;-82
2023/02/09 05:22:01;;;;;;;;;;;;;;;;;;5018156;28;19920;-82
2023/02/09 05:24:27;;;;;;;;;;;;;;;;;;5036632;28;19905;-83
2023/02/09 05:26:53;;;;;;;;;;;;;;;;;;5018213;28;19909;-83
2023/02/09 05:29:19;;;;;;;;;;;;;;;;;;5017047;28;20019;-83
2023/02/09 05:31:45;;;;;;;;;;;;;;;;;;5053466;28;19920;-83
2023/02/09 05:34:10;;;;;;;;;;;;;;;;;;5055921;28;19917;-83
2023/02/09 05:36:36;;;;;;;;;;;;;;;;;;5038713;28;19909;-83
2023/02/09 05:39:02;;;;;;;;;;;;;;;;;;5056433;28;19916;-82
2023/02/09 05:44:13;;;;;;;;;;;;;;;;;;5061703;28;20385;-83
2023/02/09 05:46:39;;;;;;;;;;;;;;;;;;5040293;28;19908;-82
2023/02/09 05:49:05;;;;;;;;;;;;;;;;;;5038847;28;19908;-83
2023/02/09 05:51:31;;;;;;;;;;;;;;;;;;5056277;28;19911;-82
2023/02/09 05:53:56;;;;;;;;;;;;;;;;;;5055346;28;19917;-82
2023/02/09 05:56:22;;;;;;;;;;;;;;;;;;5028320;28;19913;-82
2023/02/09 05:58:48;;;;;;;;;;;;;;;;;;5053893;28;19913;-82
2023/02/09 06:01:14;;;;;;;;;;;;;;;;;;5037956;28;19909;-83
2023/02/09 06:03:40;;;;;;;;;;;;;;;;;;5055289;28;19993;-82
2023/02/09 06:06:06;;;;;;;;;;;;;;;;;;5038281;28;19913;-83
2023/02/09 06:08:32;;;;;;;;;;;;;;;;;;5017756;28;20007;-82
2023/02/09 06:10:58;;;;;;;;;;;;;;;;;;5017564;28;20353;-82
2023/02/09 06:13:24;;;;;;;;;;;;;;;;;;5017642;28;19916;-83
2023/02/09 06:15:50;;;;;;;;;;;;;;;;;;5029942;28;20011;-82
2023/02/09 06:18:16;;;;;;;;;;;;;;;;;;5036801;28;20400;-82
2023/02/09 06:20:41;;;;;;;;;;;;;;;;;;5054872;28;19916;-82
2023/02/09 06:23:07;;;;;;;;;;;;;;;;;;5055028;28;20471;-81
2023/02/09 06:25:33;;;;;;;;;;;;;;;;;;5049063;28;19920;-82
2023/02/09 06:27:59;;;;;;;;;;;;;;;;;;5031806;28;19914;-83
2023/02/09 06:30:25;;;;;;;;;;;;;;;;;;5034896;28;19947;-82
2023/02/09 06:32:51;;;;;;;;;;;;;;;;;;5016910;28;19916;-82
2023/02/09 06:35:17;;;;;;;;;;;;;;;;;;5016660;28;19913;-82
2023/02/09 06:37:43;;;;;;;;;;;;;;;;;;5034693;28;19913;-82
2023/02/09 06:40:08;;;;;;;;;;;;;;;;;;5036843;28;19912;-82
2023/02/09 06:42:44;;;;;;;;;;;;;;;;;;5040098;28;19909;-82
2023/02/09 06:45:10;;;;;;;;;;;;;;;;;;5057932;28;19916;-82
2023/02/09 06:47:36;;;;;;;;;;;;;;;;;;5056610;28;20325;-83
2023/02/09 06:50:02;;;;;;;;;;;;;;;;;;5058280;28;19909;-82
2023/02/09 06:52:28;;;;;;;;;;;;;;;;;;5057743;28;19908;-82
2023/02/09 06:54:53;;;;;;;;;;;;;;;;;;5057679;28;19936;-82
2023/02/09 06:57:19;;;;;;;;;;;;;;;;;;5056051;28;19967;-82
2023/02/09 06:59:45;;;;;;;;;;;;;;;;;;5039682;28;19943;-82
2023/02/09 07:02:11;;;;;;;;;;;;;;;;;;5039987;28;19916;-82
2023/02/09 07:04:37;;;;;;;;;;;;;;;;;;5040480;28;19976;-82
2023/02/09 07:07:03;;;;;;;;;;;;;;;;;;5056558;28;19917;-82
2023/02/09 07:09:29;;;;;;;;;;;;;;;;;;5040527;28;19909;-83
2023/02/09 07:11:55;;;;;;;;;;;;;;;;;;5040576;28;20003;-83
2023/02/09 07:14:20;;;;;;;;;;;;;;;;;;5040799;28;19916;-83
2023/02/09 07:16:46;;;;;;;;;;;;;;;;;;5059038;28;19913;-83
2023/02/09 07:19:12;;;;;;;;;;;;;;;;;;5038732;28;20016;-83
2023/02/09 07:21:38;;;;;;;;;;;;;;;;;;5058130;28;19909;-83
2023/02/09 07:24:04;;;;;;;;;;;;;;;;;;5040523;28;19909;-83
2023/02/09 07:26:30;;;;;;;;;;;;;;;;;;5058256;28;19971;-83
2023/02/09 07:28:56;;;;;;;;;;;;;;;;;;5040630;28;19955;-83
2023/02/09 07:31:25;;;;;;;;;;;;;;;;;;5039153;28;20297;-83
2023/02/09 07:33:51;;;;;;;;;;;;;;;;;;5040837;28;19919;-83
2023/02/09 07:36:17;;;;;;;;;;;;;;;;;;5042522;28;19948;-83
2023/02/09 07:38:43;;;;;;;;;;;;;;;;;;5060167;28;19979;-83
2023/02/09 07:41:09;;;;;;;;;;;;;;;;;;5061523;28;19952;-83
2023/02/09 07:43:35;;;;;;;;;;;;;;;;;;5058082;28;20023;-83
2023/02/09 07:46:01;;;;;;;;;;;;;;;;;;5043168;28;19913;-83
2023/02/09 07:48:27;;;;;;;;;;;;;;;;;;5044987;28;20317;-82
2023/02/09 07:50:53;;;;;;;;;;;;;;;;;;5044049;28;19909;-84
2023/02/09 07:53:19;;;;;;;;;;;;;;;;;;5039955;28;19909;-84
2023/02/09 07:55:45;;;;;;;;;;;;;;;;;;5037942;28;19924;-82
2023/02/09 07:58:11;;;;;;;;;;;;;;;;;;5040510;28;20436;-84
2023/02/09 08:00:37;;;;;;;;;;;;;;;;;;5042203;28;19909;-83
2023/02/09 08:03:02;;;;;;;;;;;;;;;;;;5058784;28;20363;-83
2023/02/09 08:05:28;;;;;;;;;;;;;;;;;;5043702;28;19914;-83
2023/02/09 08:07:54;;;;;;;;;;;;;;;;;;5021012;28;19916;-83
2023/02/09 08:10:20;;;;;;;;;;;;;;;;;;5021268;28;19932;-84
2023/02/09 08:12:58;;;;;;;;;;;;;;;;;;5020884;28;20274;-83
2023/02/09 08:15:24;;;;;;;;;;;;;;;;;;5045846;28;20008;-83
2023/02/09 08:17:50;;;;;;;;;;;;;;;;;;5040504;28;20397;-82
2023/02/09 08:20:16;;;;;;;;;;;;;;;;;;5058313;28;19909;-83
2023/02/09 08:22:42;;;;;;;;;;;;;;;;;;5040115;28;20015;-82
2023/02/09 08:25:08;;;;;;;;;;;;;;;;;;5039137;28;19909;-82
2023/02/09 08:27:34;;;;;;;;;;;;;;;;;;5044146;28;19913;-82
2023/02/09 08:30:00;;;;;;;;;;;;;;;;;;5045159;28;19986;-83
2023/02/09 08:32:26;;;;;;;;;;;;;;;;;;5027550;28;19975;-83
2023/02/09 08:34:52;;;;;;;;;;;;;;;;;;5037087;28;19913;-82
2023/02/09 08:37:18;;;;;;;;;;;;;;;;;;5035506;28;19917;-84
2023/02/09 08:39:44;;;;;;;;;;;;;;;;;;5043588;28;19913;-84
2023/02/09 08:42:09;;;;;;;;;;;;;;;;;;5038243;28;19913;-83
2023/02/09 08:44:35;;;;;;;;;;;;;;;;;;5056950;28;19995;-82
2023/02/09 08:47:01;;;;;;;;;;;;;;;;;;5039815;28;19938;-83
2023/02/09 08:49:27;;;;;;;;;;;;;;;;;;5046419;28;19920;-87
2023/02/09 08:51:53;;;;;;;;;;;;;;;;;;5022672;28;19920;-84
2023/02/09 08:54:19;;;;;;;;;;;;;;;;;;5042127;28;19913;-84
2023/02/09 08:56:45;;;;;;;;;;;;;;;;;;5052996;28;19947;-82
2023/02/09 08:59:11;;;;;;;;;;;;;;;;;;5043834;28;19913;-84
2023/02/09 09:01:39;;;;;;;;;;;;;;;;;;5033822;28;20142;-83
2023/02/09 09:04:05;;;;;;;;;;;;;;;;;;5039862;28;20278;-84
2023/02/09 09:06:31;;;;;;;;;;;;;;;;;;5062040;28;19913;-83
2023/02/09 09:08:57;;;;;;;;;;;;;;;;;;5060843;28;19916;-82
2023/02/09 09:11:23;;;;;;;;;;;;;;;;;;5060054;28;20014;-84
2023/02/09 09:13:48;;;;;;;;;;;;;;;;;;5062182;28;19905;-83
2023/02/09 09:16:14;;;;;;;;;;;;;;;;;;5044514;28;20294;-84
2023/02/09 09:18:40;;;;;;;;;;;;;;;;;;5061778;28;19916;-84
2023/02/09 09:21:06;;;;;;;;;;;;;;;;;;5058106;28;19913;-83
2023/02/09 09:23:32;;;;;;;;;;;;;;;;;;5061335;28;19916;-83
2023/02/09 09:25:58;;;;;;;;;;;;;;;;;;5061023;28;19955;-83
2023/02/09 09:28:24;;;;;;;;;;;;;;;;;;5057309;28;19917;-82
2023/02/09 09:30:50;;;;;;;;;;;;;;;;;;5043144;28;19913;-84
2023/02/09 09:33:16;;;;;;;;;;;;;;;;;;5060474;28;19940;-84
2023/02/09 09:35:41;;;;;;;;;;;;;;;;;;5041296;28;19947;-84
2023/02/09 09:38:07;;;;;;;;;;;;;;;;;;5039386;28;19936;-83
2023/02/09 09:40:33;;;;;;;;;;;;;;;;;;5041745;28;19984;-84
2023/02/09 09:42:59;;;;;;;;;;;;;;;;;;5057222;28;19915;-83
2023/02/09 09:45:25;;;;;;;;;;;;;;;;;;5039483;28;19910;-83
2023/02/09 09:47:51;;;;;;;;;;;;;;;;;;5039966;28;19914;-82
2023/02/09 09:50:17;;;;;;;;;;;;;;;;;;5022539;28;19947;-82
2023/02/09 09:52:43;;;;;;;;;;;;;;;;;;5039204;28;20388;-83
2023/02/09 09:55:09;;;;;;;;;;;;;;;;;;5055980;28;19920;-84
2023/02/09 09:57:35;;;;;;;;;;;;;;;;;;5037843;28;19932;-84
2023/02/09 10:00:00;;;;;;;;;;;;;;;;;;5038058;28;20403;-85
2023/02/09 10:02:26;;;;;;;;;;;;;;;;;;5038727;28;19914;-84
2023/02/09 10:04:52;;;;;;;;;;;;;;;;;;5021198;28;20299;-83
2023/02/09 10:07:18;;;;;;;;;;;;;;;;;;5037338;28;19952;-83
2023/02/09 10:09:45;;;;;;;;;;;;;;;;;;5034257;28;20003;-83
2023/02/09 10:12:11;;;;;;;;;;;;;;;;;;5058814;28;19974;-83
2023/02/09 10:14:37;;;;;;;;;;;;;;;;;;5040745;28;19919;-83
2023/02/09 10:17:03;;;;;;;;;;;;;;;;;;5061976;28;20422;-83
2023/02/09 10:19:29;;;;;;;;;;;;;;;;;;5039368;28;19912;-82
2023/02/09 10:21:55;;;;;;;;;;;;;;;;;;5062700;28;19909;-83
2023/02/09 10:24:21;;;;;;;;;;;;;;;;;;5044285;28;20270;-84
2023/02/09 10:26:47;;;;;;;;;;;;;;;;;;5040374;28;19916;-82
2023/02/09 10:29:12;;;;;;;;;;;;;;;;;;5044247;28;20320;-83
2023/02/09 10:31:38;;;;;;;;;;;;;;;;;;5043631;28;19909;-84
2023/02/09 10:34:06;;;;;;;;;;;;;;;;;;5059425;28;20050;-85
2023/02/09 10:36:32;;;;;;;;;;;;;;;;;;5060597;28;19908;-85
2023/02/09 10:38:58;;;;;;;;;;;;;;;;;;5043059;28;19916;-84
2023/02/09 10:41:24;;;;;;;;;;;;;;;;;;5060792;28;20282;-82
2023/02/09 10:43:50;;;;;;;;;;;;;;;;;;5059513;28;19963;-83
2023/02/09 10:46:16;;;;;;;;;;;;;;;;;;5042031;28;19951;-85
2023/02/09 10:48:42;;;;;;;;;;;;;;;;;;5043253;28;19921;-84
2023/02/09 10:51:08;;;;;;;;;;;;;;;;;;5042966;28;20403;-85
2023/02/09 10:53:34;;;;;;;;;;;;;;;;;;5056175;28;20365;-84
2023/02/09 10:56:00;;;;;;;;;;;;;;;;;;5036248;28;19924;-85
2023/02/09 10:58:26;;;;;;;;;;;;;;;;;;5059002;28;19948;-84
2023/02/09 11:00:52;;;;;;;;;;;;;;;;;;5061069;28;20259;-83
2023/02/09 11:03:18;;;;;;;;;;;;;;;;;;5042885;28;19975;-85
2023/02/09 11:05:45;;;;;;;;;;;;;;;;;;5041188;28;19988;-84
2023/02/09 11:08:11;;;;;;;;;;;;;;;;;;5039710;28;19913;-86
2023/02/09 11:10:36;;;;;;;;;;;;;;;;;;5024546;28;19909;-83
2023/02/09 11:13:02;;;;;;;;;;;;;;;;;;5024562;28;19936;-85
2023/02/09 11:15:28;;;;;;;;;;;;;;;;;;5023820;28;20051;-84
2023/02/09 11:17:54;;;;;;;;;;;;;;;;;;5040774;28;19959;-86
2023/02/09 11:20:20;;;;;;;;;;;;;;;;;;5038552;28;19941;-85
2023/02/09 11:22:46;;;;;;;;;;;;;;;;;;5021857;28;19913;-85
2023/02/09 11:25:12;;;;;;;;;;;;;;;;;;5023208;28;19944;-84
2023/02/09 11:27:38;;;;;;;;;;;;;;;;;;5023813;28;20001;-85
2023/02/09 11:30:04;;;;;;;;;;;;;;;;;;5021474;28;19944;-84
2023/02/09 11:32:30;;;;;;;;;;;;;;;;;;5022264;28;19909;-85
2023/02/09 11:34:55;;;;;;;;;;;;;;;;;;5060393;28;19913;-85
2023/02/09 11:37:21;;;;;;;;;;;;;;;;;;5043249;28;19909;-84
2023/02/09 11:39:47;;;;;;;;;;;;;;;;;;5043542;28;19948;-86
2023/02/09 11:44:58;;;;;;;;;;;;;;;;;;5040775;28;19920;-85
2023/02/09 11:47:24;;;;;;;;;;;;;;;;;;5042172;28;19908;-86
2023/02/09 11:49:50;;;;;;;;;;;;;;;;;;5043174;28;20366;-85
2023/02/09 11:52:16;;;;;;;;;;;;;;;;;;5050929;28;19962;-85
2023/02/09 11:54:44;;;;;;;;;;;;;;;;;;5050924;28;19917;-86
2023/02/09 11:57:10;;;;;;;;;;;;;;;;;;5046633;28;19913;-85
2023/02/09 11:59:36;;;;;;;;;;;;;;;;;;5046349;28;19920;-84
2023/02/09 12:02:01;;;;;;;;;;;;;;;;;;5029120;28;19959;-86
2023/02/09 12:04:27;;;;;;;;;;;;;;;;;;5034835;28;19927;-85
2023/02/09 12:06:53;;;;;;;;;;;;;;;;;;5045535;28;19910;-86
2023/02/09 12:09:19;;;;;;;;;;;;;;;;;;5044220;28;20267;-85
2023/02/09 12:11:45;;;;;;;;;;;;;;;;;;5044647;28;19917;-84
2023/02/09 12:14:11;;;;;;;;;;;;;;;;;;5042214;28;19924;-85
2023/02/09 12:16:37;;;;;;;;;;;;;;;;;;5027209;28;20341;-84
2023/02/09 12:19:05;;;;;;;;;;;;;;;;;;5025314;28;19921;-84
2023/02/09 12:21:31;;;;;;;;;;;;;;;;;;5029793;28;20488;-86
2023/02/09 12:23:57;;;;;;;;;;;;;;;;;;5064617;28;19909;-85
2023/02/09 12:26:23;;;;;;;;;;;;;;;;;;5043926;28;20264;-83
2023/02/09 12:28:49;;;;;;;;;;;;;;;;;;5046707;28;20003;-84
2023/02/09 12:31:15;;;;;;;;;;;;;;;;;;5041270;28;20375;-82
2023/02/09 12:33:41;;;;;;;;;;;;;;;;;;5043483;28;19944;-84
2023/02/09 12:36:07;;;;;;;;;;;;;;;;;;5044234;28;19974;-82
2023/02/09 12:38:33;;;;;;;;;;;;;;;;;;5062693;28;19916;-84
2023/02/09 12:40:59;;;;;;;;;;;;;;;;;;5040112;28;19913;-85
2023/02/09 12:43:25;;;;;;;;;;;;;;;;;;5044004;28;19909;-84
2023/02/09 12:45:51;;;;;;;;;;;;;;;;;;5062391;28;19916;-85
2023/02/09 12:48:18;;;;;;;;;;;;;;;;;;5046058;28;19909;-85
2023/02/09 12:50:44;;;;;;;;;;;;;;;;;;5043006;28;20285;-85
2023/02/09 12:53:09;;;;;;;;;;;;;;;;;;5044356;28;19920;-85
2023/02/09 12:55:36;;;;;;;;;;;;;;;;;;5060009;28;19913;-86
2023/02/09 12:58:02;;;;;;;;;;;;;;;;;;5042750;28;19916;-86
2023/02/09 13:00:28;;;;;;;;;;;;;;;;;;5060447;28;19909;-86
2023/02/09 13:02:55;;;;;;;;;;;;;;;;;;5060132;28;20317;-87
2023/02/09 13:05:21;;;;;;;;;;;;;;;;;;5044142;28;19920;-85
2023/02/09 13:07:47;;;;;;;;;;;;;;;;;;5043885;28;19931;-85
2023/02/09 13:10:15;;;;;;;;;;;;;;;;;;5043418;28;19955;-85
2023/02/09 13:12:41;;;;;;;;;;;;;;;;;;5041185;28;19913;-85
2023/02/09 13:15:07;;;;;;;;;;;;;;;;;;5042466;28;20357;-86
2023/02/09 13:17:33;;;;;;;;;;;;;;;;;;5042405;28;19915;-85
2023/02/09 13:19:59;;;;;;;;;;;;;;;;;;5042566;28;19916;-84
2023/02/09 13:22:25;;;;;;;;;;;;;;;;;;5056909;28;19951;-85
2023/02/09 13:24:51;;;;;;;;;;;;;;;;;;5043538;28;19912;-85
2023/02/09 13:27:18;;;;;;;;;;;;;;;;;;5042941;28;19908;-85
2023/02/09 13:29:44;;;;;;;;;;;;;;;;;;5044847;28;19927;-85
2023/02/09 13:32:10;;;;;;;;;;;;;;;;;;5022144;28;19920;-86
2023/02/09 13:34:36;;;;;;;;;;;;;;;;;;5023142;28;19948;-85
2023/02/09 13:37:03;;;;;;;;;;;;;;;;;;5023103;28;19913;-84
2023/02/09 13:39:29;;;;;;;;;;;;;;;;;;5022705;28;19916;-84
2023/02/09 13:41:55;;;;;;;;;;;;;;;;;;5026159;28;19921;-83
2023/02/09 13:44:21;;;;;;;;;;;;;;;;;;5047647;28;20324;-83
2023/02/09 13:46:47;;;;;;;;;;;;;;;;;;5045497;28;19919;-83
2023/02/09 13:49:13;;;;;;;;;;;;;;;;;;5063020;28;20412;-83
2023/02/09 13:51:39;;;;;;;;;;;;;;;;;;5046474;28;19909;-83
2023/02/09 13:54:04;;;;;;;;;;;;;;;;;;5064308;28;19967;-83
2023/02/09 13:56:31;;;;;;;;;;;;;;;;;;5045903;28;19917;-83
2023/02/09 13:58:57;;;;;;;;;;;;;;;;;;5048778;28;19909;-82
2023/02/09 14:01:22;;;;;;;;;;;;;;;;;;5048417;28;19909;-84
2023/02/09 14:03:49;;;;;;;;;;;;;;;;;;5063417;28;19909;-84
2023/02/09 14:06:16;;;;;;;;;;;;;;;;;;5028941;28;19909;-85
2023/02/09 14:08:42;;;;;;;;;;;;;;;;;;5029648;28;19909;-84
2023/02/09 14:11:08;;;;;;;;;;;;;;;;;;5031130;28;20034;-84
2023/02/09 14:13:35;;;;;;;;;;;;;;;;;;5028243;28;19909;-83
2023/02/09 14:16:07;;;;;;;;;;;;;;;;;;5041898;28;19924;-83
2023/02/09 14:18:34;;;;;;;;;;;;;;;;;;5067943;28;19916;-84
2023/02/09 14:21:00;;;;;;;;;;;;;;;;;;5049783;28;19916;-83
2023/02/09 14:23:31;;;;;;;;;;;;;;;;;;5048956;28;19913;-84
2023/02/09 14:25:57;;;;;;;;;;;;;;;;;;5047641;28;19920;-84
2023/02/09 14:28:23;;;;;;;;;;;;;;;;;;5042956;28;19924;-83
2023/02/09 14:30:49;;;;;;;;;;;;;;;;;;5043752;28;19956;-85
2023/02/09 14:33:15;;;;;;;;;;;;;;;;;;5027343;28;19948;-84
2023/02/09 14:35:40;;;;;;;;;;;;;;;;;;5055377;28;20449;-83
2023/02/09 14:38:06;;;;;;;;;;;;;;;;;;5063476;28;19909;-84
2023/02/09 14:40:33;;;;;;;;;;;;;;;;;;5047043;28;19940;-82
2023/02/09 14:42:59;;;;;;;;;;;;;;;;;;5046362;28;19909;-84
2023/02/09 14:45:25;;;;;;;;;;;;;;;;;;5048314;28;19921;-84
2023/02/09 14:47:51;;;;;;;;;;;;;;;;;;5031301;28;19913;-84
2023/02/09 14:50:17;;;;;;;;;;;;;;;;;;5026498;28;19910;-84
2023/02/09 14:52:43;;;;;;;;;;;;;;;;;;5033799;28;19913;-84
2023/02/09 14:55:09;;;;;;;;;;;;;;;;;;5031046;28;19913;-85
2023/02/09 14:57:36;;;;;;;;;;;;;;;;;;5044101;28;19913;-84
2023/02/09 15:00:02;;;;;;;;;;;;;;;;;;5048287;28;19912;-84
2023/02/09 15:02:28;;;;;;;;;;;;;;;;;;5047270;28;19909;-85
2023/02/09 15:04:54;;;;;;;;;;;;;;;;;;5047116;28;19909;-86
2023/02/09 15:07:20;;;;;;;;;;;;;;;;;;5033995;28;19913;-84
2023/02/09 15:09:46;;;;;;;;;;;;;;;;;;5028155;28;19977;-84
2023/02/09 15:12:12;;;;;;;;;;;;;;;;;;5028726;28;19975;-82
2023/02/09 15:14:38;;;;;;;;;;;;;;;;;;5028146;28;19960;-85
2023/02/09 15:17:04;;;;;;;;;;;;;;;;;;5037600;28;19913;-85
2023/02/09 15:19:31;;;;;;;;;;;;;;;;;;5048410;28;19909;-83
2023/02/09 15:22:04;;;;;;;;;;;;;;;;;;5066550;28;20290;-84
2023/02/09 15:24:30;;;;;;;;;;;;;;;;;;5046240;28;19909;-84
2023/02/09 15:26:56;;;;;;;;;;;;;;;;;;5040027;28;19913;-83
2023/02/09 15:29:22;;;;;;;;;;;;;;;;;;5061822;28;19927;-83
2023/02/09 15:31:48;;;;;;;;;;;;;;;;;;5045560;28;19909;-84
2023/02/09 15:34:15;;;;;;;;;;;;;;;;;;5065720;28;19915;-83
2023/02/09 15:36:41;;;;;;;;;;;;;;;;;;5065008;28;19941;-84
2023/02/09 15:39:07;;;;;;;;;;;;;;;;;;5041683;28;19932;-84
2023/02/09 15:49:47;;;;;;;;;;;;;;;;;;5060252;28;19930;-84
2023/02/09 15:52:13;;;;;;;;;;;;;;;;;;5042627;28;19941;-84
2023/02/09 15:54:39;;;;;;;;;;;;;;;;;;5041963;28;19913;-84
2023/02/09 15:57:05;;;;;;;;;;;;;;;;;;5038388;28;19919;-84
2023/02/09 15:59:31;;;;;;;;;;;;;;;;;;5042713;28;19919;-84
2023/02/09 16:01:57;;;;;;;;;;;;;;;;;;5041842;28;20304;-83
2023/02/09 16:04:23;;;;;;;;;;;;;;;;;;5059857;28;19908;-84
2023/02/09 16:06:49;;;;;;;;;;;;;;;;;;5057547;28;20320;-85
2023/02/09 16:09:15;;;;;;;;;;;;;;;;;;5042939;28;19909;-84
2023/02/09 16:11:41;;;;;;;;;;;;;;;;;;5041836;28;20032;-85
2023/02/09 16:14:06;;;;;;;;;;;;;;;;;;5041404;28;20394;-84
2023/02/09 16:16:32;;;;;;;;;;;;;;;;;;5057824;28;19920;-84
2023/02/09 16:18:58;;;;;;;;;;;;;;;;;;5042541;28;19908;-85
2023/02/09 16:21:24;;;;;;;;;;;;;;;;;;5060147;28;19909;-83
2023/02/09 16:23:50;;;;;;;;;;;;;;;;;;5042465;28;19912;-84
2023/02/09 16:26:18;;;;;;;;;;;;;;;;;;5060041;28;19909;-84
2023/02/09 16:28:44;;;;;;;;;;;;;;;;;;5046898;28;19921;-84
2023/02/09 16:31:09;;;;;;;;;;;;;;;;;;5039432;28;19909;-85
2023/02/09 16:33:37;;;;;;;;;;;;;;;;;;5021419;28;19932;-84
2023/02/09 16:36:04;;;;;;;;;;;;;;;;;;5021429;28;19979;-85
2023/02/09 16:38:29;;;;;;;;;;;;;;;;;;5046145;28;19920;-84
2023/02/09 16:40:55;;;;;;;;;;;;;;;;;;5059719;28;19909;-84
2023/02/09 16:43:21;;;;;;;;;;;;;;;;;;5058650;28;19916;-83
2023/02/09 16:45:47;;;;;;;;;;;;;;;;;;5058825;28;19909;-84
2023/02/09 16:48:13;;;;;;;;;;;;;;;;;;5037518;28;19913;-84
2023/02/09 16:50:40;;;;;;;;;;;;;;;;;;5059648;28;19913;-84
2023/02/09 16:53:06;;;;;;;;;;;;;;;;;;5040681;28;19996;-84
2023/02/09 16:55:32;;;;;;;;;;;;;;;;;;5059201;28;19952;-84
2023/02/09 16:57:58;;;;;;;;;;;;;;;;;;5057592;28;20311;-84
2023/02/09 17:00:24;;;;;;;;;;;;;;;;;;5057989;28;20379;-83
2023/02/09 17:02:50;;;;;;;;;;;;;;;;;;5058456;28;19909;-83